createdAt,value
2018-07-28T00:01:20.168Z,27.10
2018-07-28T00:03:50.279Z,27.00
2018-07-28T00:06:19.689Z,27.00
2018-07-28T00:08:49.474Z,27.00
2018-07-28T00:11:19.163Z,27.00
2018-07-28T00:13:48.974Z,27.00
2018-07-28T00:16:18.511Z,26.90
2018-07-28T00:18:47.916Z,26.90
2018-07-28T00:21:17.889Z,26.90
2018-07-28T00:23:47.610Z,26.90
2018-07-28T00:26:18.932Z,26.90
2018-07-28T00:28:49.815Z,26.80
2018-07-28T00:31:19.937Z,26.80
2018-07-28T00:33:49.466Z,26.80
2018-07-28T00:36:19.246Z,26.80
2018-07-28T00:38:49.337Z,26.80
2018-07-28T00:41:19.028Z,26.80
2018-07-28T00:43:48.133Z,26.70
2018-07-28T00:46:17.992Z,26.70
2018-07-28T00:48:47.725Z,26.70
2018-07-28T00:51:17.535Z,26.70
2018-07-28T00:53:47.001Z,26.70
2018-07-28T00:56:17.124Z,26.60
2018-07-28T00:58:46.548Z,26.60
2018-07-28T01:01:16.045Z,26.60
2018-07-28T01:03:45.798Z,26.60
2018-07-28T01:06:15.276Z,26.60
2018-07-28T01:08:45.615Z,26.50
2018-07-28T01:11:15.461Z,26.50
2018-07-28T01:13:44.961Z,26.50
2018-07-28T01:16:14.425Z,26.50
2018-07-28T01:18:44.261Z,26.50
2018-07-28T01:21:13.685Z,26.50
2018-07-28T01:23:43.085Z,26.50
2018-07-28T01:26:12.499Z,26.40
2018-07-28T01:28:42.213Z,26.40
2018-07-28T01:31:11.665Z,26.40
2018-07-28T01:33:41.106Z,26.40
2018-07-28T01:36:11.287Z,26.40
2018-07-28T01:38:40.957Z,26.40
2018-07-28T01:41:10.453Z,26.30
2018-07-28T01:43:40.239Z,26.30
2018-07-28T01:46:09.711Z,26.30
2018-07-28T01:48:39.153Z,26.30
2018-07-28T01:51:08.642Z,26.30
2018-07-28T01:53:38.061Z,26.30
2018-07-28T01:56:08.052Z,26.20
2018-07-28T01:58:37.726Z,26.20
2018-07-28T02:01:07.219Z,26.20
2018-07-28T02:03:36.652Z,26.20
2018-07-28T02:06:06.449Z,26.20
2018-07-28T02:08:35.915Z,26.20
2018-07-28T02:11:05.700Z,26.10
2018-07-28T02:13:35.340Z,26.10
2018-07-28T02:16:05.153Z,26.10
2018-07-28T02:18:34.874Z,26.10
2018-07-28T02:21:04.421Z,26.10
2018-07-28T02:23:34.688Z,26.10
2018-07-28T02:26:04.146Z,26.00
2018-07-28T02:28:33.604Z,26.00
2018-07-28T02:31:03.374Z,26.00
2018-07-28T02:33:33.174Z,26.00
2018-07-28T02:36:02.600Z,26.00
2018-07-28T02:38:32.716Z,25.90
2018-07-28T02:41:02.561Z,25.90
2018-07-28T02:43:32.346Z,25.90
2018-07-28T02:46:02.026Z,25.90
2018-07-28T02:48:31.724Z,25.90
2018-07-28T02:51:01.454Z,25.90
2018-07-28T02:53:31.251Z,25.80
2018-07-28T02:56:00.669Z,25.80
2018-07-28T02:58:30.666Z,25.80
2018-07-28T03:01:00.129Z,25.80
2018-07-28T03:03:30.463Z,25.80
2018-07-28T03:05:59.931Z,25.80
2018-07-28T03:08:29.376Z,25.80
2018-07-28T03:10:58.899Z,25.70
2018-07-28T03:13:28.368Z,25.70
2018-07-28T03:15:57.742Z,25.70
2018-07-28T03:18:27.190Z,25.70
2018-07-28T03:20:56.585Z,25.70
2018-07-28T03:23:25.980Z,25.70
2018-07-28T03:25:55.766Z,25.70
2018-07-28T03:28:25.201Z,25.60
2018-07-28T03:30:54.756Z,25.60
2018-07-28T03:33:24.157Z,25.60
2018-07-28T03:35:54.107Z,25.60
2018-07-28T03:38:23.661Z,25.60
2018-07-28T03:40:53.646Z,25.60
2018-07-28T03:43:23.497Z,25.60
2018-07-28T03:45:53.304Z,25.50
2018-07-28T03:48:22.744Z,25.50
2018-07-28T03:50:52.597Z,25.50
2018-07-28T03:53:22.636Z,25.50
2018-07-28T03:55:52.076Z,25.50
2018-07-28T03:58:21.802Z,25.50
2018-07-28T04:00:51.244Z,25.40
2018-07-28T04:03:20.692Z,25.40
2018-07-28T04:05:50.443Z,25.40
2018-07-28T04:08:20.381Z,25.40
2018-07-28T04:10:49.839Z,25.40
2018-07-28T04:13:19.581Z,25.40
2018-07-28T04:15:49.041Z,25.40
2018-07-28T04:18:18.808Z,25.40
2018-07-28T04:20:48.545Z,25.40
2018-07-28T04:23:18.729Z,25.40
2018-07-28T04:25:48.431Z,25.40
2018-07-28T04:28:18.546Z,25.40
2018-07-28T04:30:48.359Z,25.40
2018-07-28T04:33:18.386Z,25.40
2018-07-28T04:35:47.816Z,25.40
2018-07-28T04:38:17.800Z,25.50
2018-07-28T04:40:47.529Z,25.50
2018-07-28T04:43:17.792Z,25.50
2018-07-28T04:45:47.221Z,25.50
2018-07-28T04:48:16.983Z,25.50
2018-07-28T04:50:46.858Z,25.50
2018-07-28T04:53:16.318Z,25.60
2018-07-28T04:55:46.326Z,25.60
2018-07-28T04:58:15.781Z,25.60
2018-07-28T05:00:45.225Z,25.60
2018-07-28T05:03:14.676Z,25.70
2018-07-28T05:05:44.138Z,25.70
2018-07-28T05:08:14.121Z,25.70
2018-07-28T05:10:43.848Z,25.70
2018-07-28T05:13:13.880Z,25.80
2018-07-28T05:15:43.690Z,25.80
2018-07-28T05:18:13.505Z,25.80
2018-07-28T05:20:43.607Z,25.90
2018-07-28T05:23:13.321Z,25.90
2018-07-28T05:25:42.729Z,26.00
2018-07-28T05:28:12.498Z,26.00
2018-07-28T05:30:42.286Z,26.00
2018-07-28T05:33:12.022Z,26.10
2018-07-28T05:35:41.822Z,26.10
2018-07-28T05:38:11.599Z,26.20
2018-07-28T05:40:41.344Z,26.20
2018-07-28T05:43:10.789Z,26.30
2018-07-28T05:45:40.828Z,26.30
2018-07-28T05:48:10.537Z,26.40
2018-07-28T05:50:40.841Z,26.50
2018-07-28T05:53:10.452Z,26.50
2018-07-28T05:55:40.525Z,26.60
2018-07-28T05:58:10.515Z,26.70
2018-07-28T06:00:40.665Z,26.80
2018-07-28T06:03:10.192Z,26.90
2018-07-28T06:05:40.017Z,26.90
2018-07-28T06:08:09.528Z,27.00
2018-07-28T06:10:39.634Z,27.10
2018-07-28T06:13:09.921Z,27.20
2018-07-28T06:15:39.704Z,27.30
2018-07-28T06:18:09.538Z,27.50
2018-07-28T06:20:39.366Z,27.60
2018-07-28T06:23:09.840Z,27.70
2018-07-28T06:25:39.285Z,27.90
2018-07-28T06:28:09.121Z,28.10
2018-07-28T06:30:38.951Z,28.20
2018-07-28T06:33:08.605Z,28.40
2018-07-28T06:35:38.593Z,28.60
2018-07-28T06:38:08.051Z,28.80
2018-07-28T06:40:37.556Z,28.90
2018-07-28T06:43:07.392Z,29.10
2018-07-28T06:45:37.143Z,29.20
2018-07-28T06:48:06.983Z,29.40
2018-07-28T06:50:36.472Z,29.50
2018-07-28T06:53:06.160Z,29.70
2018-07-28T06:55:35.985Z,29.80
2018-07-28T06:58:05.836Z,30.00
2018-07-28T07:00:35.635Z,30.10
2018-07-28T07:03:05.385Z,30.20
2018-07-28T07:05:35.240Z,30.30
2018-07-28T07:08:05.001Z,30.50
2018-07-28T07:10:35.054Z,30.60
2018-07-28T07:13:05.134Z,30.70
2018-07-28T07:15:34.664Z,30.90
2018-07-28T07:18:04.261Z,31.00
2018-07-28T07:20:33.708Z,31.10
2018-07-28T07:23:03.120Z,31.30
2018-07-28T07:25:32.548Z,31.40
2018-07-28T07:28:02.326Z,31.50
2018-07-28T07:30:31.769Z,31.60
2018-07-28T07:33:01.153Z,31.70
2018-07-28T07:35:30.916Z,31.80
2018-07-28T07:38:00.374Z,31.90
2018-07-28T07:40:29.860Z,32.00
2018-07-28T07:42:59.243Z,32.10
2018-07-28T07:45:28.616Z,32.30
2018-07-28T07:47:58.043Z,32.40
2018-07-28T07:50:27.415Z,32.50
2018-07-28T07:52:56.808Z,32.60
2018-07-28T07:55:26.573Z,32.70
2018-07-28T07:57:55.965Z,32.80
2018-07-28T08:00:25.382Z,33.00
2018-07-28T08:02:54.770Z,33.10
2018-07-28T08:05:24.156Z,33.30
2018-07-28T08:07:53.563Z,33.40
2018-07-28T08:10:22.965Z,33.60
2018-07-28T08:12:52.387Z,33.70
2018-07-28T08:15:21.811Z,33.90
2018-07-28T08:17:51.196Z,34.00
2018-07-28T08:20:20.605Z,34.10
2018-07-28T08:22:49.985Z,34.30
2018-07-28T08:25:19.478Z,34.40
2018-07-28T08:27:48.845Z,34.60
2018-07-28T08:30:18.337Z,34.70
2018-07-28T08:32:47.763Z,34.80
2018-07-28T08:35:17.151Z,34.90
2018-07-28T08:37:46.608Z,35.10
2018-07-28T08:40:16.016Z,35.20
2018-07-28T08:42:45.447Z,35.30
2018-07-28T08:45:15.153Z,35.50
2018-07-28T08:47:44.547Z,35.60
2018-07-28T08:50:14.527Z,35.70
2018-07-28T08:52:44.048Z,35.90
2018-07-28T08:55:13.465Z,36.00
2018-07-28T08:57:42.834Z,36.10
2018-07-28T09:00:12.198Z,36.20
2018-07-28T09:02:41.581Z,36.30
2018-07-28T09:05:11.090Z,36.40
2018-07-28T09:07:40.457Z,36.50
2018-07-28T09:10:09.989Z,36.60
2018-07-28T09:12:39.357Z,36.70
2018-07-28T09:15:10.214Z,36.70
2018-07-28T09:17:39.841Z,36.80
2018-07-28T09:20:09.820Z,36.90
2018-07-28T09:22:39.371Z,36.90
2018-07-28T09:25:08.983Z,36.90
2018-07-28T09:27:38.341Z,36.90
2018-07-28T09:30:08.444Z,36.90
2018-07-28T09:32:37.889Z,36.90
2018-07-28T09:35:07.400Z,36.90
2018-07-28T09:37:36.886Z,36.80
2018-07-28T09:40:06.671Z,36.80
2018-07-28T09:42:36.133Z,36.80
2018-07-28T09:45:06.385Z,36.70
2018-07-28T09:47:35.834Z,36.70
2018-07-28T09:50:05.818Z,36.60
2018-07-28T09:52:35.228Z,36.60
2018-07-28T09:55:04.933Z,36.50
2018-07-28T09:57:34.292Z,36.50
2018-07-28T10:00:03.805Z,36.40
2018-07-28T10:02:33.192Z,36.40
2018-07-28T10:05:02.616Z,36.30
2018-07-28T10:07:32.116Z,36.30
2018-07-28T10:10:01.557Z,36.20
2018-07-28T10:12:30.966Z,36.10
2018-07-28T10:15:00.466Z,36.10
2018-07-28T10:17:30.514Z,36.00
2018-07-28T10:19:59.948Z,36.00
2018-07-28T10:22:29.700Z,35.90
2018-07-28T10:24:59.902Z,35.80
2018-07-28T10:27:29.351Z,35.70
2018-07-28T10:29:59.230Z,35.60
2018-07-28T10:32:28.663Z,35.60
2018-07-28T10:34:58.658Z,35.50
2018-07-28T10:37:28.468Z,35.50
2018-07-28T10:39:58.257Z,35.40
2018-07-28T10:42:28.017Z,35.40
2018-07-28T10:44:58.092Z,35.30
2018-07-28T10:47:28.046Z,35.20
2018-07-28T10:49:57.915Z,35.20
2018-07-28T10:52:27.984Z,35.10
2018-07-28T10:54:57.749Z,35.10
2018-07-28T10:57:27.286Z,35.10
2018-07-28T10:59:57.321Z,35.00
2018-07-28T11:02:26.770Z,35.00
2018-07-28T11:04:56.712Z,34.90
2018-07-28T11:07:26.145Z,34.90
2018-07-28T11:09:56.835Z,34.90
2018-07-28T11:12:27.421Z,34.90
2018-07-28T11:14:57.225Z,34.80
2018-07-28T11:17:27.187Z,34.80
2018-07-28T11:19:56.889Z,34.80
2018-07-28T11:22:26.898Z,34.70
2018-07-28T11:24:56.404Z,34.70
2018-07-28T11:27:26.358Z,34.70
2018-07-28T11:29:56.301Z,34.70
2018-07-28T11:32:42.573Z,34.60
2018-07-28T11:35:29.100Z,34.60
2018-07-28T11:38:41.102Z,34.50
2018-07-28T11:41:27.664Z,34.40
2018-07-28T11:44:13.952Z,34.30
2018-07-28T11:46:43.697Z,34.30
2018-07-28T11:49:13.420Z,34.30
2018-07-28T11:51:43.154Z,34.30
2018-07-28T11:54:12.613Z,34.30
2018-07-28T11:56:42.893Z,34.30
2018-07-28T11:59:13.303Z,34.30
2018-07-28T12:01:42.813Z,34.30
2018-07-28T12:04:12.654Z,34.30
2018-07-28T12:06:42.432Z,34.30
2018-07-28T12:09:11.863Z,34.30
2018-07-28T12:11:42.068Z,34.30
2018-07-28T12:14:11.585Z,34.30
2018-07-28T12:16:41.095Z,34.30
2018-07-28T12:19:10.945Z,34.20
2018-07-28T12:21:40.340Z,34.20
2018-07-28T12:24:09.780Z,34.20
2018-07-28T12:26:39.837Z,34.20
2018-07-28T12:29:09.331Z,34.20
2018-07-28T12:31:39.006Z,34.10
2018-07-28T12:34:08.678Z,34.10
2018-07-28T12:36:38.453Z,34.10
2018-07-28T12:39:10.006Z,34.10
2018-07-28T12:41:40.729Z,34.10
2018-07-28T12:44:10.141Z,34.10
2018-07-28T12:46:40.179Z,34.00
2018-07-28T12:49:09.627Z,34.00
2018-07-28T12:51:39.339Z,34.00
2018-07-28T12:54:09.088Z,34.00
2018-07-28T12:56:38.552Z,34.00
2018-07-28T12:59:08.330Z,34.00
2018-07-28T13:01:37.947Z,34.00
2018-07-28T13:04:07.590Z,34.00
2018-07-28T13:06:37.557Z,34.00
2018-07-28T13:09:11.029Z,34.00
2018-07-28T13:11:40.703Z,34.00
2018-07-28T13:14:10.376Z,34.00
2018-07-28T13:16:40.520Z,34.00
2018-07-28T13:19:10.169Z,33.90
2018-07-28T13:21:40.386Z,33.90
2018-07-28T13:24:09.946Z,33.90
2018-07-28T13:26:39.501Z,33.90
2018-07-28T13:29:09.145Z,33.90
2018-07-28T13:31:39.377Z,33.90
2018-07-28T13:34:08.984Z,33.90
2018-07-28T13:36:38.790Z,33.90
2018-07-28T13:39:09.302Z,33.90
2018-07-28T13:41:39.341Z,33.90
2018-07-28T13:44:08.947Z,33.90
2018-07-28T13:46:39.282Z,33.90
2018-07-28T13:49:09.221Z,33.90
2018-07-28T13:51:39.443Z,33.90
2018-07-28T13:54:09.658Z,33.80
2018-07-28T13:56:39.880Z,33.80
2018-07-28T13:59:09.800Z,33.80
2018-07-28T14:01:40.513Z,33.80
2018-07-28T14:04:10.078Z,33.80
2018-07-28T14:06:40.343Z,33.80
2018-07-28T14:09:10.847Z,33.80
2018-07-28T14:11:40.566Z,33.80
2018-07-28T14:14:09.874Z,33.70
2018-07-28T14:16:39.347Z,33.70
2018-07-28T14:19:08.931Z,33.70
2018-07-28T14:21:38.757Z,33.70
2018-07-28T14:24:08.476Z,33.70
2018-07-28T14:26:38.317Z,33.70
2018-07-28T14:29:08.105Z,33.70
2018-07-28T14:31:37.926Z,33.70
2018-07-28T14:34:07.744Z,33.60
2018-07-28T14:36:37.454Z,33.60
2018-07-28T14:39:09.489Z,33.60
2018-07-28T14:41:39.781Z,33.60
2018-07-28T14:44:09.523Z,33.60
2018-07-28T14:46:39.293Z,33.60
2018-07-28T14:49:09.083Z,33.60
2018-07-28T14:51:38.829Z,33.50
2018-07-28T14:54:08.590Z,33.50
2018-07-28T14:56:38.694Z,33.50
2018-07-28T14:59:08.864Z,33.50
2018-07-28T15:01:38.336Z,33.50
2018-07-28T15:04:08.514Z,33.50
2018-07-28T15:06:38.057Z,33.50
2018-07-28T15:09:08.595Z,33.50
2018-07-28T15:11:38.388Z,33.40
2018-07-28T15:14:08.167Z,33.40
2018-07-28T15:16:37.957Z,33.40
2018-07-28T15:19:07.629Z,33.40
2018-07-28T15:21:37.420Z,33.40
2018-07-28T15:24:07.522Z,33.40
2018-07-28T15:26:37.016Z,33.40
2018-07-28T15:29:06.464Z,33.40
2018-07-28T15:31:35.895Z,33.40
2018-07-28T15:34:05.408Z,33.40
2018-07-28T15:36:34.792Z,33.40
2018-07-28T15:39:05.840Z,33.40
2018-07-28T15:41:35.228Z,33.30
2018-07-28T15:44:04.832Z,33.30
2018-07-28T15:46:34.256Z,33.30
2018-07-28T15:49:03.929Z,33.30
2018-07-28T15:51:32.993Z,33.30
2018-07-28T15:54:02.360Z,33.30
2018-07-28T15:56:31.754Z,33.30
2018-07-28T15:59:01.112Z,33.30
2018-07-28T16:01:30.227Z,33.30
2018-07-28T16:03:59.637Z,33.20
2018-07-28T16:06:29.090Z,33.20
2018-07-28T16:08:58.496Z,33.20
2018-07-28T16:11:27.899Z,33.20
2018-07-28T16:13:57.444Z,33.20
2018-07-28T16:16:26.803Z,33.20
2018-07-28T16:18:56.222Z,33.20
2018-07-28T16:21:25.710Z,33.20
2018-07-28T16:23:55.153Z,33.10
2018-07-28T16:26:24.598Z,33.10
2018-07-28T16:28:54.358Z,33.10
2018-07-28T16:31:24.245Z,33.10
2018-07-28T16:33:53.866Z,33.10
2018-07-28T16:36:23.298Z,33.10
2018-07-28T16:38:52.710Z,33.10
2018-07-28T16:41:22.258Z,33.00
2018-07-28T16:43:51.632Z,33.00
2018-07-28T16:46:21.083Z,33.00
2018-07-28T16:48:50.517Z,33.00
2018-07-28T16:51:20.445Z,33.00
2018-07-28T16:53:49.837Z,32.90
2018-07-28T16:56:19.254Z,32.90
2018-07-28T16:58:48.733Z,32.90
2018-07-28T17:01:18.155Z,32.90
2018-07-28T17:03:47.908Z,32.90
2018-07-28T17:06:17.329Z,32.80
2018-07-28T17:08:46.761Z,32.80
2018-07-28T17:11:16.191Z,32.80
2018-07-28T17:13:45.632Z,32.80
2018-07-28T17:16:15.036Z,32.70
2018-07-28T17:18:44.549Z,32.70
2018-07-28T17:21:13.988Z,32.70
2018-07-28T17:23:43.463Z,32.70
2018-07-28T17:26:12.863Z,32.70
2018-07-28T17:28:42.319Z,32.60
2018-07-28T17:31:11.835Z,32.60
2018-07-28T17:33:41.242Z,32.60
2018-07-28T17:36:10.653Z,32.60
2018-07-28T17:38:40.430Z,32.50
2018-07-28T17:41:10.488Z,32.50
2018-07-28T17:43:39.802Z,32.50
2018-07-28T17:46:09.624Z,32.50
2018-07-28T17:48:39.313Z,32.40
2018-07-28T17:51:08.875Z,32.40
2018-07-28T17:53:38.377Z,32.40
2018-07-28T17:56:08.097Z,32.30
2018-07-28T17:58:37.597Z,32.30
2018-07-28T18:01:07.365Z,32.30
2018-07-28T18:03:36.805Z,32.30
2018-07-28T18:06:07.729Z,32.20
2018-07-28T18:08:37.155Z,32.20
2018-07-28T18:11:06.704Z,32.20
2018-07-28T18:13:36.649Z,32.10
2018-07-28T18:16:06.080Z,32.10
2018-07-28T18:18:35.520Z,32.00
2018-07-28T18:21:05.056Z,32.00
2018-07-28T18:23:34.732Z,31.90
2018-07-28T18:26:04.161Z,31.90
2018-07-28T18:28:33.688Z,31.90
2018-07-28T18:31:03.149Z,31.80
2018-07-28T18:33:32.766Z,31.80
2018-07-28T18:36:02.466Z,31.80
2018-07-28T18:38:31.901Z,31.70
2018-07-28T18:41:01.378Z,31.70
2018-07-28T18:43:30.816Z,31.60
2018-07-28T18:46:00.301Z,31.60
2018-07-28T18:48:29.768Z,31.60
2018-07-28T18:50:59.474Z,31.50
2018-07-28T18:53:29.265Z,31.50
2018-07-28T18:55:59.056Z,31.40
2018-07-28T18:58:28.512Z,31.40
2018-07-28T19:00:58.322Z,31.30
2018-07-28T19:03:28.041Z,31.30
2018-07-28T19:05:57.829Z,31.30
2018-07-28T19:08:27.242Z,31.20
2018-07-28T19:10:57.050Z,31.20
2018-07-28T19:13:31.693Z,31.20
2018-07-28T19:16:01.736Z,31.10
2018-07-28T19:19:35.101Z,31.10
2018-07-28T19:22:08.660Z,30.80
2018-07-28T19:24:38.344Z,30.80
2018-07-28T19:27:07.802Z,30.80
2018-07-28T19:29:40.676Z,30.80
2018-07-28T19:32:10.358Z,30.70
2018-07-28T19:34:40.109Z,30.70
2018-07-28T19:37:14.876Z,30.70
2018-07-28T19:39:44.287Z,30.60
2018-07-28T19:42:20.370Z,30.60
2018-07-28T19:44:49.747Z,30.60
2018-07-28T19:47:19.222Z,30.60
2018-07-28T19:49:48.372Z,30.50
2018-07-28T19:52:17.864Z,30.50
2018-07-28T19:54:47.586Z,30.50
2018-07-28T19:57:17.032Z,30.50
2018-07-28T19:59:46.769Z,30.40
2018-07-28T20:02:16.197Z,30.40
2018-07-28T20:04:45.622Z,30.40
2018-07-28T20:07:15.111Z,30.30
2018-07-28T20:09:44.616Z,30.30
2018-07-28T20:12:14.131Z,30.30
2018-07-28T20:14:43.590Z,30.20
2018-07-28T20:17:13.439Z,30.20
2018-07-28T20:19:43.001Z,30.20
2018-07-28T20:22:12.643Z,30.20
2018-07-28T20:24:41.722Z,30.10
2018-07-28T20:27:11.161Z,30.10
2018-07-28T20:29:40.577Z,30.10
2018-07-28T20:32:10.394Z,30.10
2018-07-28T20:34:40.136Z,30.00
2018-07-28T20:37:09.641Z,30.00
2018-07-28T20:39:39.105Z,30.00
2018-07-28T20:42:08.633Z,30.00
2018-07-28T20:44:38.200Z,29.90
2018-07-28T20:47:09.773Z,29.90
2018-07-28T20:49:39.798Z,29.90
2018-07-28T20:52:09.630Z,29.80
2018-07-28T20:54:39.093Z,29.80
2018-07-28T20:57:08.576Z,29.80
2018-07-28T20:59:38.274Z,29.80
2018-07-28T21:02:07.824Z,29.70
2018-07-28T21:04:37.521Z,29.70
2018-07-28T21:07:06.945Z,29.70
2018-07-28T21:09:36.390Z,29.70
2018-07-28T21:12:06.173Z,29.70
2018-07-28T21:14:36.307Z,29.60
2018-07-28T21:17:06.115Z,29.60
2018-07-28T21:19:35.565Z,29.60
2018-07-28T21:22:05.078Z,29.60
2018-07-28T21:24:34.846Z,29.60
2018-07-28T21:27:04.619Z,29.50
2018-07-28T21:29:34.269Z,29.50
2018-07-28T21:32:04.110Z,29.50
2018-07-28T21:34:33.526Z,29.50
2018-07-28T21:37:02.962Z,29.50
2018-07-28T21:39:32.388Z,29.50
2018-07-28T21:42:01.830Z,29.40
2018-07-28T21:44:31.236Z,29.40
2018-07-28T21:47:00.721Z,29.40
2018-07-28T21:49:30.117Z,29.40
2018-07-28T21:51:59.913Z,29.40
2018-07-28T21:54:29.588Z,29.40
2018-07-28T21:56:58.981Z,29.40
2018-07-28T21:59:28.426Z,29.30
2018-07-28T22:01:57.818Z,29.30
2018-07-28T22:04:29.861Z,29.30
2018-07-28T22:06:59.297Z,29.20
2018-07-28T22:09:28.988Z,29.20
2018-07-28T22:11:58.124Z,29.20
2018-07-28T22:14:27.868Z,29.20
2018-07-28T22:16:57.336Z,29.20
2018-07-28T22:19:26.789Z,29.20
2018-07-28T22:21:56.189Z,29.20
2018-07-28T22:24:26.063Z,29.10
2018-07-28T22:26:55.504Z,29.10
2018-07-28T22:29:24.952Z,29.10
2018-07-28T22:31:54.426Z,29.10
2018-07-28T22:34:24.260Z,29.10
2018-07-28T22:36:53.686Z,29.10
2018-07-28T22:39:23.101Z,29.10
2018-07-28T22:41:52.507Z,29.10
2018-07-28T22:44:22.020Z,29.10
2018-07-28T22:46:52.119Z,29.00
2018-07-28T22:49:21.558Z,29.00
2018-07-28T22:51:51.184Z,29.00
2018-07-28T22:54:21.351Z,29.00
2018-07-28T22:56:50.791Z,29.00
2018-07-28T22:59:20.184Z,29.00
2018-07-28T23:01:49.953Z,29.00
2018-07-28T23:04:19.669Z,28.90
2018-07-28T23:06:49.092Z,28.90
2018-07-28T23:09:18.626Z,28.90
2018-07-28T23:11:48.695Z,28.90
2018-07-28T23:14:18.367Z,28.90
2018-07-28T23:16:48.480Z,28.80
2018-07-28T23:19:17.520Z,28.80
2018-07-28T23:21:47.178Z,28.80
2018-07-28T23:24:16.568Z,28.80
2018-07-28T23:26:46.406Z,28.80
2018-07-28T23:29:16.208Z,28.80
2018-07-28T23:31:45.630Z,28.80
2018-07-28T23:34:15.032Z,28.80
2018-07-28T23:36:44.419Z,28.80
2018-07-28T23:39:13.917Z,28.70
2018-07-28T23:41:43.378Z,28.70
2018-07-28T23:44:12.456Z,28.70
2018-07-28T23:46:42.268Z,28.70
2018-07-28T23:49:11.704Z,28.70
2018-07-28T23:51:41.151Z,28.70
2018-07-28T23:54:11.037Z,28.60
2018-07-28T23:56:40.561Z,28.60
2018-07-28T23:59:09.975Z,28.60
